Time;durP1;ratioP1;P1;durP2;ratioP2;P2;SDS_P1;SDS_P2;PMS_P1;PMS_P2;Temp;Humidity;BMP_temperature;BMP_pressure;BME280_temperature;BME280_humidity;BME280_pressure;Samples;Min_cycle;Max_cycle;Signal;HPM_P1;HPM_P2
2022/08/19 00:02:25;;;;;;;9.57;5.40;;;;;;;24.97;56.49;99825.41;5550982;32;33991;-70
2022/08/19 00:05:30;;;;;;;10.10;5.55;;;;;;;24.91;56.59;99819.16;5550800;32;34714;-70
2022/08/19 00:08:32;;;;;;;8.25;5.93;;;;;;;24.91;56.51;99821.88;5550936;32;34024;-70
2022/08/19 00:11:37;;;;;;;8.07;6.20;;;;;;;25.03;56.91;99824.28;5550690;32;34881;-70
2022/08/19 00:14:40;;;;;;;9.82;6.50;;;;;;;25.02;56.48;99826.19;5550791;32;34038;-70
2022/08/19 00:17:44;;;;;;;8.95;6.62;;;;;;;25.25;55.88;99821.22;5550334;32;33957;-70
2022/08/19 00:20:46;;;;;;;9.38;6.78;;;;;;;25.36;55.39;99825.53;5550800;32;34306;-69
2022/08/19 00:23:50;;;;;;;8.27;6.90;;;;;;;25.29;55.79;99817.69;5549999;32;34720;-70
2022/08/19 00:26:52;;;;;;;8.10;6.40;;;;;;;25.32;55.43;99827.19;5550636;32;33931;-69
2022/08/19 00:29:58;;;;;;;8.38;6.70;;;;;;;25.29;55.79;99823.09;5549882;32;34580;-69
2022/08/19 00:33:01;;;;;;;8.70;6.45;;;;;;;25.28;56.21;99824.19;5550469;32;34551;-70
2022/08/19 00:36:07;;;;;;;10.65;6.75;;;;;;;25.29;55.97;99822.28;5550451;32;33983;-69
2022/08/19 00:39:10;;;;;;;9.45;6.30;;;;;;;25.28;56.16;99831.53;5550500;32;33923;-70
2022/08/19 00:42:13;;;;;;;10.13;6.78;;;;;;;25.19;57.50;99823.16;5550349;32;34181;-70
2022/08/19 00:45:20;;;;;;;11.55;6.53;;;;;;;25.02;56.96;99828.91;5550385;32;35269;-70
2022/08/19 00:48:23;;;;;;;11.90;6.90;;;;;;;24.92;58.32;99820.78;5550441;32;34634;-70
2022/08/19 00:51:29;;;;;;;12.98;6.87;;;;;;;24.80;58.66;99833.81;5550404;32;34115;-70
2022/08/19 00:54:32;;;;;;;11.07;7.25;;;;;;;24.78;58.08;99824.31;5550323;32;33940;-70
2022/08/19 00:57:39;;;;;;;11.38;7.20;;;;;;;24.79;57.92;99809.66;5548911;32;32195;-70
2022/08/19 01:00:43;;;;;;;10.95;6.32;;;;;;;24.90;57.43;99803.97;5550260;32;34565;-69
2022/08/19 01:03:45;;;;;;;8.25;5.97;;;;;;;24.90;57.66;99812.09;5550219;32;35279;-70
2022/08/19 01:07:02;;;;;;;8.00;6.78;;;;;;;24.83;57.84;99811.56;5550245;32;34031;-70
2022/08/19 01:10:14;;;;;;;8.05;6.05;;;;;;;24.79;57.68;99806.94;5550044;32;33993;-70
2022/08/19 01:13:25;;;;;;;10.32;6.85;;;;;;;24.83;57.71;99803.44;5549258;32;34090;-70
2022/08/19 01:16:29;;;;;;;9.70;6.70;;;;;;;24.77;57.87;99809.94;5550009;32;34002;-70
2022/08/19 01:19:39;;;;;;;13.02;6.30;;;;;;;24.67;58.56;99823.53;5550334;32;33946;-70
2022/08/19 01:22:56;;;;;;;9.20;6.65;;;;;;;24.51;59.85;99820.00;5549911;32;35407;-70
2022/08/19 01:25:59;;;;;;;10.20;6.57;;;;;;;24.50;61.66;99812.13;5549009;32;34037;-70
2022/08/19 01:29:01;;;;;;;8.52;5.90;;;;;;;24.58;61.63;99807.00;5549065;32;33986;-70
2022/08/19 01:32:11;;;;;;;8.90;5.82;;;;;;;24.67;61.11;99801.81;5549829;32;34023;-70
2022/08/19 01:35:36;;;;;;;13.00;6.43;;;;;;;24.75;61.29;99808.56;5549171;32;33957;-70
2022/08/19 01:38:42;;;;;;;11.88;6.20;;;;;;;24.70;61.10;99814.81;5549801;32;34572;-69
2022/08/19 01:41:47;;;;;;;7.50;5.97;;;;;;;24.54;62.11;99807.81;5548741;32;32621;-70
2022/08/19 01:44:50;;;;;;;13.18;6.22;;;;;;;24.54;61.98;99796.97;5549431;32;34485;-70
2022/08/19 01:47:53;;;;;;;9.15;6.10;;;;;;;24.45;62.26;99799.41;5548771;32;34053;-70
2022/08/19 01:51:05;;;;;;;9.70;6.53;;;;;;;24.33;63.54;99787.22;5549492;32;33879;-70
2022/08/19 01:54:11;;;;;;;11.70;6.20;;;;;;;24.26;62.67;99787.47;5549559;32;33982;-70
2022/08/19 01:57:14;;;;;;;10.88;6.60;;;;;;;24.31;62.71;99789.38;5549375;32;35240;-69
2022/08/19 02:00:19;;;;;;;10.15;6.18;;;;;;;24.20;63.02;99783.16;5549259;32;34215;-70
2022/08/19 02:03:22;;;;;;;11.70;6.95;;;;;;;24.18;62.92;99772.59;5549560;32;33869;-69
2022/08/19 02:06:25;;;;;;;9.57;6.20;;;;;;;24.17;63.05;99778.28;5548321;32;33890;-69
2022/08/19 02:09:30;;;;;;;10.57;6.78;;;;;;;24.09;63.52;99776.91;5550207;32;34073;-69
2022/08/19 02:12:33;;;;;;;10.82;6.50;;;;;;;24.13;63.46;99777.97;5551783;32;33908;-69
2022/08/19 02:15:39;;;;;;;8.82;6.62;;;;;;;24.15;63.47;99766.88;5551614;32;34262;-69
2022/08/19 02:18:41;;;;;;;8.77;6.55;;;;;;;24.06;63.64;99771.22;5551739;32;34041;-69
2022/08/19 02:21:44;;;;;;;10.32;6.80;;;;;;;23.94;64.21;99762.53;5551732;32;34721;-69
2022/08/19 02:24:47;;;;;;;9.52;6.80;;;;;;;23.93;64.38;99769.84;5538445;32;33959;-69
2022/08/19 02:27:50;;;;;;;9.27;6.85;;;;;;;23.92;64.62;99778.22;5551701;32;34598;-69
2022/08/19 02:30:53;;;;;;;14.55;6.57;;;;;;;23.85;64.72;99764.97;5546456;32;142872;-69
2022/08/19 02:33:56;;;;;;;13.85;6.60;;;;;;;23.78;64.64;99758.97;5551548;32;34394;-69
2022/08/19 02:36:59;;;;;;;8.90;6.50;;;;;;;23.81;64.59;99758.47;5551557;32;33947;-68
2022/08/19 02:40:06;;;;;;;12.65;7.10;;;;;;;23.86;64.90;99763.06;5551435;32;33923;-68
2022/08/19 02:43:14;;;;;;;10.40;6.75;;;;;;;23.76;65.49;99772.81;5551152;32;34583;-70
2022/08/19 02:46:21;;;;;;;11.07;6.85;;;;;;;23.69;66.49;99771.44;5551326;32;34220;-69
2022/08/19 02:49:24;;;;;;;10.52;7.07;;;;;;;23.61;66.04;99775.50;5551344;32;34674;-68
2022/08/19 02:52:29;;;;;;;10.18;6.97;;;;;;;23.52;66.75;99773.56;5551355;32;33954;-68
2022/08/19 02:55:31;;;;;;;10.07;6.78;;;;;;;23.46;67.56;99777.34;5551746;32;34094;-68
2022/08/19 02:58:48;;;;;;;9.32;7.03;;;;;;;23.44;68.59;99785.69;5551389;32;33996;-68
2022/08/19 03:01:52;;;;;;;8.38;6.93;;;;;;;23.47;69.08;99796.03;5551343;32;34741;-68
2022/08/19 03:04:55;;;;;;;9.43;6.87;;;;;;;23.39;68.88;99801.91;5551291;32;34052;-69
2022/08/19 03:07:57;;;;;;;14.80;6.82;;;;;;;23.40;69.15;99809.78;5551294;32;34541;-69
2022/08/19 03:11:00;;;;;;;10.98;7.18;;;;;;;23.33;69.38;99803.00;5551598;32;33944;-68
2022/08/19 03:14:04;;;;;;;9.27;7.40;;;;;;;23.28;69.84;99800.28;5537467;32;32679;-68
2022/08/19 03:17:07;;;;;;;10.13;7.22;;;;;;;23.31;69.34;99803.25;5551124;32;34100;-68
2022/08/19 03:20:10;;;;;;;10.05;7.35;;;;;;;23.33;68.96;99820.03;5550464;32;33907;-68
2022/08/19 03:23:15;;;;;;;13.85;7.50;;;;;;;23.28;68.96;99819.22;5551485;32;33958;-68
2022/08/19 03:26:17;;;;;;;14.10;7.03;;;;;;;23.23;68.54;99819.19;5550321;32;34526;-68
2022/08/19 03:29:20;;;;;;;8.63;6.37;;;;;;;23.21;68.48;99816.75;5551227;32;33905;-69
2022/08/19 03:32:32;;;;;;;16.25;7.45;;;;;;;23.12;68.57;99825.63;5551106;32;33848;-69
2022/08/19 03:35:38;;;;;;;12.02;7.28;;;;;;;23.03;69.09;99828.03;5551030;32;34600;-69
2022/08/19 03:38:48;;;;;;;11.32;7.30;;;;;;;23.00;69.50;99823.13;5550482;32;32964;-68
2022/08/19 03:42:02;;;;;;;13.27;7.50;;;;;;;23.11;68.32;99824.81;5551097;32;34025;-68
2022/08/19 03:45:25;;;;;;;9.35;6.95;;;;;;;23.09;68.41;99828.88;5551409;32;33924;-69
2022/08/19 03:48:31;;;;;;;13.77;6.78;;;;;;;23.06;68.33;99832.91;5550856;32;34127;-68
2022/08/19 03:51:37;;;;;;;12.65;7.07;;;;;;;23.04;67.97;99835.06;5551155;32;34093;-68
2022/08/19 03:54:40;;;;;;;11.43;7.57;;;;;;;23.15;67.23;99831.31;5550819;32;33907;-69
2022/08/19 03:57:42;;;;;;;10.27;7.18;;;;;;;23.16;67.22;99832.13;5550890;32;33968;-69
2022/08/19 04:00:45;;;;;;;10.60;7.00;;;;;;;23.16;67.29;99829.44;5550114;32;33011;-69
2022/08/19 04:03:49;;;;;;;9.13;7.10;;;;;;;23.16;67.16;99840.25;5550711;32;33888;-69
2022/08/19 04:06:52;;;;;;;12.45;6.90;;;;;;;23.11;67.27;99841.03;5550741;32;34066;-70
2022/08/19 04:09:55;;;;;;;11.80;6.65;;;;;;;23.12;67.06;99837.28;5550748;32;34021;-69
2022/08/19 04:12:58;;;;;;;13.43;7.12;;;;;;;23.13;67.21;99843.50;5550534;32;33966;-69
2022/08/19 04:16:01;;;;;;;16.10;7.45;;;;;;;23.27;66.60;99852.75;5549686;32;33042;-69
2022/08/19 04:19:06;;;;;;;15.20;6.65;;;;;;;23.20;67.20;99857.59;5549498;32;33042;-69
2022/08/19 04:22:10;;;;;;;10.35;6.70;;;;;;;23.24;67.16;99861.41;5550627;32;34809;-69
2022/08/19 04:25:13;;;;;;;11.63;7.00;;;;;;;23.25;67.08;99871.97;5550890;32;34277;-69
2022/08/19 04:28:16;;;;;;;7.95;6.37;;;;;;;23.27;67.10;99867.12;5550656;32;33933;-69
2022/08/19 04:31:26;;;;;;;9.82;7.30;;;;;;;23.28;67.17;99866.03;5549081;32;32609;-69
2022/08/19 04:34:29;;;;;;;13.40;7.12;;;;;;;23.33;67.65;99866.03;5550740;32;33934;-69
2022/08/19 04:37:33;;;;;;;13.13;7.10;;;;;;;23.32;68.02;99855.50;5550449;32;33938;-70
2022/08/19 04:44:03;;;;;;;11.95;7.10;;;;;;;23.36;69.29;99872.84;5549502;32;32532;-69
2022/08/19 04:47:06;;;;;;;12.80;6.90;;;;;;;23.33;68.92;99862.53;5550278;32;34004;-69
2022/08/19 04:50:13;;;;;;;10.60;7.10;;;;;;;23.35;70.08;99874.72;5549513;32;33771;-69
2022/08/19 04:53:20;;;;;;;11.45;6.97;;;;;;;23.49;71.22;99885.09;5549638;32;33894;-70
2022/08/19 04:56:25;;;;;;;11.48;7.18;;;;;;;23.45;70.02;99874.00;5550334;32;33922;-67
2022/08/19 04:59:28;;;;;;;11.43;7.32;;;;;;;23.44;68.58;99871.50;5550571;32;34010;-69
2022/08/19 05:02:31;;;;;;;16.23;6.78;;;;;;;23.46;70.13;99870.22;5549483;32;33472;-69
2022/08/19 05:05:41;;;;;;;10.93;7.03;;;;;;;23.47;68.47;99866.44;5550367;32;35195;-69
2022/08/19 05:08:47;;;;;;;9.82;6.62;;;;;;;23.62;67.52;99871.09;5536455;32;32709;-70
2022/08/19 05:11:53;;;;;;;15.00;6.75;;;;;;;23.68;66.91;99876.25;5549918;32;33971;-70
2022/08/19 05:14:57;;;;;;;8.63;6.78;;;;;;;23.72;66.76;99877.34;5549897;32;33812;-70
2022/08/19 05:24:44;;;;;;;14.10;6.93;;;;;;;24.03;65.41;99869.28;5549676;32;34549;-69
2022/08/19 05:28:06;;;;;;;11.25;6.90;;;;;;;24.05;65.10;99876.09;5548740;32;34767;-70
2022/08/19 05:31:10;;;;;;;11.40;6.87;;;;;;;24.21;64.06;99880.47;5548849;32;34013;-70
2022/08/19 05:34:13;;;;;;;11.60;6.47;;;;;;;24.33;63.54;99872.06;5548327;32;33220;-69
2022/08/19 05:37:22;;;;;;;;;;;;;;;24.48;62.85;99868.56;5549691;32;34174;-70
2022/08/19 05:40:24;;;;;;;14.60;6.53;;;;;;;24.53;62.64;99866.66;5548241;32;36775;-70
2022/08/19 05:43:28;;;;;;;9.98;6.37;;;;;;;24.61;62.57;99876.97;5550651;32;34316;-70
2022/08/19 05:46:31;;;;;;;12.45;6.62;;;;;;;24.80;62.26;99874.50;5550537;32;32641;-69
2022/08/19 05:49:36;;;;;;;13.93;6.45;;;;;;;25.01;61.66;99878.03;5551480;32;34651;-70
2022/08/19 05:52:39;;;;;;;13.77;6.85;;;;;;;25.01;61.57;99869.91;5551265;32;34152;-69
2022/08/19 05:55:47;;;;;;;10.00;6.57;;;;;;;25.03;60.77;99879.37;5551599;32;34604;-69
2022/08/19 05:58:50;;;;;;;9.75;6.12;;;;;;;25.11;61.24;99880.72;5550627;32;32091;-69
2022/08/19 06:01:55;;;;;;;11.70;6.12;;;;;;;25.27;61.26;99881.50;5551656;32;34082;-68
2022/08/19 06:04:58;;;;;;;15.73;6.85;;;;;;;25.17;60.27;99882.34;5551170;32;34044;-69
2022/08/19 06:08:00;;;;;;;9.85;6.30;;;;;;;25.34;59.69;99874.69;5550382;32;34687;-69
2022/08/19 06:11:32;;;;;;;8.60;6.50;;;;;;;25.55;58.36;99877.34;5550284;32;34197;-68
2022/08/19 06:14:35;;;;;;;10.15;7.80;;;;;;;25.65;58.74;99880.84;5551309;32;34653;-69
2022/08/19 06:17:46;;;;;;;9.73;6.87;;;;;;;25.79;58.35;99883.75;5550350;32;33024;-69
2022/08/19 06:20:49;;;;;;;8.60;6.10;;;;;;;25.74;58.99;99873.72;5550540;32;33505;-69
2022/08/19 06:23:58;;;;;;;12.52;5.90;;;;;;;25.93;58.14;99876.63;5551314;32;34297;-69
2022/08/19 06:27:01;;;;;;;11.93;5.95;;;;;;;26.24;57.19;99875.34;5551054;32;35209;-69
2022/08/19 06:30:05;;;;;;;13.77;6.25;;;;;;;26.29;56.97;99883.47;5551452;32;34594;-70
2022/08/19 06:33:08;;;;;;;13.57;6.00;;;;;;;26.53;55.69;99877.31;5551201;32;34010;-69
2022/08/19 06:36:31;;;;;;;9.93;6.18;;;;;;;26.79;55.10;99873.25;5551260;32;34017;-69
2022/08/19 06:39:37;;;;;;;9.00;5.80;;;;;;;26.47;54.92;99859.41;5551304;32;35295;-70
2022/08/19 06:42:40;;;;;;;7.20;5.75;;;;;;;26.52;54.23;99856.66;5551411;32;33984;-70
2022/08/19 06:45:56;;;;;;;13.43;5.82;;;;;;;26.92;53.31;99867.16;5551053;32;34624;-70
2022/08/19 06:49:01;;;;;;;14.68;6.15;;;;;;;27.16;52.58;99870.72;5550513;32;32900;-70
2022/08/19 06:52:05;;;;;;;8.98;5.95;;;;;;;27.58;51.60;99861.81;5537364;32;34035;-70
2022/08/19 06:55:09;;;;;;;8.30;5.25;;;;;;;27.89;50.57;99875.03;5549749;32;34504;-69
2022/08/19 06:58:11;;;;;;;12.27;5.95;;;;;;;27.76;50.71;99868.41;5550423;32;33634;-70
2022/08/19 07:01:15;;;;;;;15.82;5.95;;;;;;;28.29;49.52;99869.00;5550857;32;34105;-70
2022/08/19 07:04:20;;;;;;;7.43;5.50;;;;;;;28.49;49.39;99865.94;5550809;32;35239;-70
2022/08/19 07:07:23;;;;;;;8.10;4.50;;;;;;;28.87;47.75;99872.16;5549965;32;34073;-70
2022/08/19 07:10:26;;;;;;;6.75;4.80;;;;;;;29.46;46.63;99875.16;5550040;32;32713;-70
2022/08/19 07:13:29;;;;;;;7.95;5.03;;;;;;;29.93;45.04;99882.09;5551033;32;34214;-70
2022/08/19 07:16:32;;;;;;;10.00;4.90;;;;;;;30.36;44.37;99876.97;5550182;32;32809;-70
2022/08/19 07:19:35;;;;;;;10.80;4.90;;;;;;;30.11;44.60;99883.88;5550190;32;34640;-70
2022/08/19 07:22:39;;;;;;;8.55;4.97;;;;;;;30.46;44.93;99896.72;5551176;32;34075;-69
2022/08/19 07:25:42;;;;;;;11.23;4.78;;;;;;;29.60;46.41;99903.28;5550880;32;34952;-70
2022/08/19 07:28:46;;;;;;;9.93;4.40;;;;;;;29.76;46.56;99899.94;5549895;32;32920;-70
2022/08/19 07:31:56;;;;;;;8.20;4.53;;;;;;;30.09;45.43;99891.56;5550844;32;34266;-69
2022/08/19 07:35:03;;;;;;;11.27;5.10;;;;;;;30.21;46.58;99887.16;5550485;32;34347;-70
2022/08/19 07:38:06;;;;;;;7.85;4.70;;;;;;;31.18;43.11;99890.28;5549791;32;35563;-70
2022/08/19 07:41:13;;;;;;;9.27;4.37;;;;;;;32.27;41.33;99890.06;5549879;32;34698;-70
2022/08/19 07:44:19;;;;;;;11.07;5.13;;;;;;;32.40;40.51;99888.25;5549834;32;34874;-70
2022/08/19 07:47:22;;;;;;;5.45;4.30;;;;;;;33.32;38.46;99888.72;5549782;32;33934;-70
2022/08/19 07:50:45;;;;;;;4.97;3.58;;;;;;;33.38;36.63;99885.47;5550708;32;34047;-72
2022/08/19 07:53:50;;;;;;;5.55;3.65;;;;;;;33.73;35.09;99877.84;5549062;32;33984;-69
2022/08/19 07:56:53;;;;;;;5.05;4.25;;;;;;;34.05;34.60;99873.56;5548788;32;34184;-71
2022/08/19 07:59:56;;;;;;;8.18;4.00;;;;;;;33.74;33.95;99878.66;5549391;32;34192;-71
2022/08/19 08:02:59;;;;;;;6.12;3.92;;;;;;;35.02;32.73;99876.69;5550265;32;33991;-70
2022/08/19 08:09:33;;;;;;;8.57;3.67;;;;;;;36.59;30.06;99878.47;5550526;32;34610;-70
2022/08/19 08:12:41;;;;;;;6.90;3.97;;;;;;;36.47;29.72;99875.75;5549389;32;33701;-71
2022/08/19 08:15:44;;;;;;;7.57;3.90;;;;;;;37.32;28.70;99882.75;5548841;32;32833;-71
2022/08/19 08:18:47;;;;;;;7.65;3.35;;;;;;;37.83;28.57;99887.13;5549452;32;34131;-71
2022/08/19 08:21:57;;;;;;;3.87;3.47;;;;;;;38.01;27.49;99876.47;5548659;32;33498;-70
2022/08/19 08:25:07;;;;;;;6.37;3.60;;;;;;;37.61;28.06;99876.75;5548979;32;33843;-70
2022/08/19 08:28:10;;;;;;;8.52;3.67;;;;;;;37.14;29.43;99879.53;5549926;32;34105;-70
2022/08/19 08:31:19;;;;;;;4.47;3.05;;;;;;;37.54;27.62;99884.88;5549272;32;32405;-70
2022/08/19 08:34:22;;;;;;;6.15;3.42;;;;;;;37.85;27.18;99886.78;5549165;32;32776;-71
2022/08/19 08:37:25;;;;;;;17.10;3.70;;;;;;;37.46;27.48;99874.78;5549784;32;34387;-71
2022/08/19 08:40:53;;;;;;;5.68;3.42;;;;;;;37.41;27.58;99877.81;5549920;32;33988;-71
2022/08/19 08:43:56;;;;;;;;;;;;;;;37.75;26.38;99873.50;5549511;32;34371;-70
2022/08/19 08:47:04;;;;;;;6.28;3.15;;;;;;;38.50;25.93;99871.16;5549772;32;34882;-71
2022/08/19 08:50:18;;;;;;;7.78;3.20;;;;;;;38.66;25.82;99877.41;5548984;32;34273;-70
2022/08/19 08:53:23;;;;;;;5.47;3.22;;;;;;;39.77;24.08;99868.97;5550009;32;35209;-69
2022/08/19 08:56:31;;;;;;;7.97;3.35;;;;;;;39.67;24.85;99866.81;5537011;32;32915;-70
2022/08/19 08:59:37;;;;;;;10.15;3.37;;;;;;;39.54;24.61;99841.25;5548808;32;34317;-69
2022/08/19 09:02:40;;;;;;;10.18;3.20;;;;;;;39.77;23.90;99839.22;5549619;32;34096;-70
2022/08/19 09:05:50;;;;;;;10.98;3.35;;;;;;;39.24;24.87;99843.94;5548980;32;33930;-71
2022/08/19 09:09:39;;;;;;;8.93;3.30;;;;;;;38.68;25.86;99850.09;5549706;32;33904;-70
2022/08/19 09:13:14;;;;;;;3.85;3.20;;;;;;;39.16;24.51;99845.03;5548517;32;33880;-69
2022/08/19 09:16:20;;;;;;;4.78;3.35;;;;;;;39.71;24.28;99849.03;5549257;32;33934;-70
2022/08/19 09:19:30;;;;;;;6.93;3.30;;;;;;;39.09;23.95;99845.69;5548406;32;33385;-69
2022/08/19 09:22:39;;;;;;;7.45;3.72;;;;;;;39.08;24.30;99841.31;5548679;32;33980;-69
2022/08/19 09:25:41;;;;;;;4.75;3.08;;;;;;;39.74;23.58;99845.53;5549404;32;34746;-69
2022/08/19 09:28:46;;;;;;;4.35;2.92;;;;;;;40.87;22.86;99837.72;5535710;32;32964;-69
2022/08/19 09:31:50;;;;;;;6.95;3.35;;;;;;;41.22;22.31;99840.00;5548688;32;34168;-69
2022/08/19 09:34:57;;;;;;;118.47;8.85;;;;;;;41.03;22.16;99832.72;5549526;32;34556;-70
2022/08/19 09:38:01;;;;;;;5.62;3.03;;;;;;;41.50;21.32;99831.06;5548548;32;34004;-69
2022/08/19 09:41:07;;;;;;;5.40;3.12;;;;;;;41.94;21.78;99823.38;5535839;32;34382;-71
2022/08/19 09:44:13;;;;;;;3.87;3.08;;;;;;;42.04;21.05;99824.59;5548411;32;33912;-70
2022/08/19 09:47:20;;;;;;;4.37;3.12;;;;;;;41.76;21.50;99814.12;5549195;32;34387;-70
2022/08/19 09:50:27;;;;;;;8.10;3.47;;;;;;;42.23;21.08;99801.16;5549126;32;34017;-71
2022/08/19 09:53:31;;;;;;;5.05;3.10;;;;;;;42.64;21.26;99802.47;5535372;32;34647;-70
2022/08/19 09:56:36;;;;;;;9.68;3.22;;;;;;;42.38;20.41;99798.03;5548329;32;33120;-72
2022/08/19 09:59:40;;;;;;;10.50;3.30;;;;;;;40.94;21.81;99793.28;5534772;32;34132;-69
2022/08/19 10:02:42;;;;;;;7.22;2.87;;;;;;;41.33;21.20;99792.78;5548542;32;34774;-69
2022/08/19 10:05:50;;;;;;;7.87;3.30;;;;;;;41.76;20.98;99791.03;5548933;32;34263;-69
2022/08/19 10:08:57;;;;;;;4.23;3.43;;;;;;;39.89;22.71;99786.19;5548223;32;32525;-70
2022/08/19 10:12:03;;;;;;;5.28;3.40;;;;;;;38.98;23.93;99775.38;5548629;32;34298;-70
2022/08/19 10:15:08;;;;;;;7.03;3.70;;;;;;;38.82;24.45;99780.25;5548481;32;34675;-70
2022/08/19 10:18:11;;;;;;;4.32;3.10;;;;;;;37.60;25.10;99786.56;5548676;32;33924;-70
2022/08/19 10:21:18;;;;;;;9.05;3.37;;;;;;;37.57;26.13;99790.03;5548755;32;34738;-69
2022/08/19 10:24:24;;;;;;;4.78;3.05;;;;;;;37.17;26.76;99776.47;5535120;32;33572;-70
2022/08/19 10:27:26;;;;;;;6.55;2.97;;;;;;;37.19;26.54;99776.09;5535114;32;33600;-69
2022/08/19 10:30:39;;;;;;;6.35;2.87;;;;;;;37.39;26.32;99764.72;5549666;32;34762;-72
2022/08/19 10:33:41;;;;;;;4.57;3.20;;;;;;;37.35;26.15;99768.56;5551088;32;34272;-70
2022/08/19 10:36:57;;;;;;;6.70;3.10;;;;;;;37.52;25.76;99761.84;5551230;32;33939;-70
2022/08/19 10:40:07;;;;;;;6.25;3.20;;;;;;;37.61;25.80;99771.56;5550324;32;32852;-70
2022/08/19 10:43:10;;;;;;;11.88;3.92;;;;;;;39.29;24.04;99763.16;5550692;32;33221;-67
2022/08/19 10:46:15;;;;;;;5.70;3.53;;;;;;;39.90;22.50;99773.13;5550645;32;34301;-71
2022/08/19 10:49:22;;;;;;;4.93;2.80;;;;;;;41.21;21.22;99768.81;5550508;32;33653;-70
2022/08/19 10:52:34;;;;;;;4.97;2.75;;;;;;;42.55;19.79;99763.00;5551175;32;34707;-70
2022/08/19 10:59:03;;;;;;;5.00;3.10;;;;;;;41.12;22.02;99771.97;5550506;32;34630;-69
2022/08/19 11:02:11;;;;;;;;;;;;;;;42.51;20.28;99764.97;5550949;32;33920;-70
2022/08/19 11:05:16;;;;;;;11.10;3.10;;;;;;;42.84;20.35;99764.63;5550487;32;34337;-68
2022/08/19 11:08:20;;;;;;;4.55;2.58;;;;;;;43.29;19.42;99765.75;5551364;32;34488;-71
2022/08/19 11:11:26;;;;;;;8.88;3.20;;;;;;;44.10;18.37;99767.47;5550401;32;32459;-70
2022/08/19 11:14:33;;;;;;;5.10;2.85;;;;;;;46.01;16.36;99770.47;5551013;32;33948;-69
2022/08/19 11:17:36;;;;;;;4.22;2.72;;;;;;;46.90;15.84;99761.53;5551094;32;34830;-68
2022/08/19 11:20:39;;;;;;;8.82;2.78;;;;;;;46.46;16.08;99765.44;5550873;32;33919;-70
2022/08/19 11:23:43;;;;;;;7.43;3.00;;;;;;;45.45;16.83;99768.41;5550864;32;35344;-70
2022/08/19 11:26:51;;;;;;;7.05;2.92;;;;;;;47.47;15.06;99764.06;5551109;32;34308;-71
2022/08/19 11:29:56;;;;;;;9.73;2.83;;;;;;;48.34;15.24;99756.16;5550973;32;34457;-69
2022/08/19 11:33:00;;;;;;;4.53;2.95;;;;;;;47.66;14.81;99753.25;5550796;32;35170;-71
2022/08/19 11:36:03;;;;;;;4.45;3.50;;;;;;;48.55;14.88;99755.66;5549967;32;32923;-70
2022/08/19 11:39:13;;;;;;;10.65;3.33;;;;;;;47.83;14.95;99757.72;5550802;32;33893;-71
2022/08/19 11:45:53;;;;;;;8.25;4.07;;;;;;;46.95;15.15;99761.03;5524349;32;34196;-71
2022/08/19 11:49:00;;;;;;;5.87;3.37;;;;;;;46.54;15.38;99752.88;5551057;32;34033;-71
2022/08/19 11:52:03;;;;;;;7.30;3.95;;;;;;;47.81;14.76;99744.09;5550712;32;34529;-71
2022/08/19 11:55:06;;;;;;;8.07;3.40;;;;;;;49.16;13.56;99746.44;5550273;32;34026;-71
2022/08/19 11:58:11;;;;;;;5.70;2.90;;;;;;;50.63;12.85;99748.00;5549847;32;33373;-70
2022/08/19 12:01:22;;;;;;;6.03;3.33;;;;;;;48.10;14.16;99743.47;5550008;32;32772;-70
2022/08/19 12:04:25;;;;;;;11.15;3.40;;;;;;;48.77;13.45;99734.19;5549838;32;32825;-71
2022/08/19 12:07:28;;;;;;;7.05;3.40;;;;;;;47.74;14.46;99724.53;5550574;32;34511;-71
2022/08/19 12:10:33;;;;;;;28.73;3.35;;;;;;;49.38;13.03;99729.72;5549864;32;34038;-70
2022/08/19 12:13:36;;;;;;;10.20;3.75;;;;;;;48.66;13.66;99721.56;5550609;32;34044;-70
2022/08/19 12:16:40;;;;;;;15.70;4.57;;;;;;;46.86;15.42;99715.06;5549838;32;33042;-69
2022/08/19 12:19:53;;;;;;;8.43;4.20;;;;;;;47.90;14.68;99715.34;5550199;32;33862;-70
2022/08/19 12:22:56;;;;;;;10.00;4.43;;;;;;;45.88;15.73;99718.22;5549544;32;35108;-70
2022/08/19 12:26:02;;;;;;;7.45;3.75;;;;;;;44.57;16.97;99709.22;5537332;32;33400;-70
2022/08/19 12:29:05;;;;;;;9.77;3.20;;;;;;;45.16;16.36;99717.47;5549631;32;33091;-70
2022/08/19 12:32:08;;;;;;;5.30;2.95;;;;;;;43.26;17.76;99715.53;5549387;32;33241;-70
2022/08/19 12:35:17;;;;;;;12.50;6.40;;;;;;;43.04;18.51;99714.75;5548891;32;32888;-69
2022/08/19 12:38:24;;;;;;;16.55;7.97;;;;;;;43.41;17.63;99707.88;5536971;32;33639;-70
2022/08/19 12:41:26;;;;;;;15.07;7.68;;;;;;;46.86;15.22;99712.25;5549616;32;32795;-70
2022/08/19 12:44:30;;;;;;;10.40;6.15;;;;;;;46.75;15.06;99709.63;5549652;32;33850;-71
2022/08/19 12:47:40;;;;;;;11.02;5.30;;;;;;;46.38;15.90;99707.06;5549465;32;33951;-71
2022/08/19 12:50:46;;;;;;;9.68;4.57;;;;;;;45.43;15.83;99702.38;5550369;32;33881;-71
2022/08/19 12:53:49;;;;;;;11.63;4.90;;;;;;;45.55;15.75;99698.22;5549596;32;34010;-71
2022/08/19 12:56:52;;;;;;;14.02;5.28;;;;;;;45.77;15.28;99693.91;5548898;32;32869;-71
2022/08/19 12:59:55;;;;;;;11.38;5.00;;;;;;;46.47;14.90;99687.66;5550240;32;34365;-71
2022/08/19 13:02:59;;;;;;;9.20;5.65;;;;;;;48.05;14.33;99682.88;5549463;32;32519;-70
2022/08/19 13:06:03;;;;;;;13.48;6.05;;;;;;;49.15;14.38;99692.09;5550038;32;34007;-71
2022/08/19 13:09:05;;;;;;;11.55;6.22;;;;;;;46.81;14.15;99676.25;5536573;32;33863;-71
2022/08/19 13:12:12;;;;;;;10.98;6.15;;;;;;;46.60;14.40;99683.84;5548965;32;33935;-71
2022/08/19 13:15:20;;;;;;;13.57;6.70;;;;;;;43.61;16.78;99683.88;5549897;32;33886;-71
2022/08/19 13:18:27;;;;;;;11.82;6.75;;;;;;;42.76;18.87;99684.09;5548745;32;34597;-71
2022/08/19 13:21:31;;;;;;;11.27;6.30;;;;;;;45.49;15.46;99685.09;5549648;32;34664;-70
2022/08/19 13:24:36;;;;;;;23.20;6.68;;;;;;;45.86;14.88;99670.97;5548876;32;34487;-69
2022/08/19 13:27:43;;;;;;;16.65;6.40;;;;;;;46.24;15.25;99671.59;5548886;32;32683;-71
2022/08/19 13:34:13;;;;;;;14.32;5.97;;;;;;;45.11;17.27;99662.72;5549264;32;34001;-70
2022/08/19 13:37:40;;;;;;;12.37;6.37;;;;;;;46.30;15.70;99658.66;5548419;32;33619;-70
2022/08/19 13:40:40;;;;;;;10.57;6.03;;;;;;;47.49;14.72;99660.44;5548391;32;32536;-71
2022/08/19 13:43:43;;;;;;;12.05;5.60;;;;;;;47.86;13.85;99658.41;5549126;32;33930;-71
2022/08/19 13:46:50;;;;;;;9.05;5.75;;;;;;;47.28;14.25;99658.09;5548508;32;34099;-71
2022/08/19 13:49:55;;;;;;;15.98;3.87;;;;;;;45.41;16.03;99662.00;5535781;32;33317;-70
2022/08/19 13:52:59;;;;;;;9.15;3.00;;;;;;;45.05;15.67;99655.19;5547975;32;32766;-71
2022/08/19 13:56:09;;;;;;;9.52;3.17;;;;;;;45.59;15.30;99647.72;5549226;32;34505;-70
2022/08/19 13:59:12;;;;;;;5.22;2.70;;;;;;;47.70;13.99;99641.50;5548434;32;32768;-69
2022/08/19 14:02:16;;;;;;;9.15;2.83;;;;;;;47.05;13.92;99635.69;5548546;32;34088;-71
2022/08/19 14:05:20;;;;;;;8.93;3.53;;;;;;;46.18;15.77;99632.03;5548818;32;32861;-71
2022/08/19 14:08:24;;;;;;;15.93;3.87;;;;;;;46.45;15.05;99625.53;5551081;32;33872;-71
2022/08/19 14:11:29;;;;;;;9.98;3.25;;;;;;;45.15;16.69;99629.06;5550383;32;34583;-70
2022/08/19 14:14:32;;;;;;;21.87;3.60;;;;;;;43.25;17.90;99644.13;5550617;32;33996;-69
2022/08/19 14:17:41;;;;;;;17.45;3.15;;;;;;;39.40;23.08;99649.53;5551154;32;34660;-71
2022/08/19 14:20:44;;;;;;;10.55;2.97;;;;;;;38.37;25.29;99659.06;5550498;32;32556;-68
2022/08/19 14:23:47;;;;;;;46.37;4.97;;;;;;;36.87;27.92;99653.69;5551635;32;33932;-66
2022/08/19 14:26:50;;;;;;;25.88;3.28;;;;;;;35.18;31.23;99670.84;5550438;32;33431;-68
2022/08/19 14:29:55;;;;;;;12.85;3.20;;;;;;;34.72;32.11;99668.59;5551134;32;34027;-69
2022/08/19 14:33:01;;;;;;;14.60;3.47;;;;;;;34.81;31.94;99667.31;5550247;32;32676;-69
2022/08/19 14:36:06;;;;;;;13.30;2.62;;;;;;;34.95;31.82;99661.47;5550004;32;33886;-66
2022/08/19 14:39:09;;;;;;;15.80;3.00;;;;;;;34.38;32.16;99654.09;5551105;32;34068;-67
2022/08/19 14:42:14;;;;;;;19.30;3.00;;;;;;;34.81;32.14;99655.50;5550554;32;33448;-70
2022/08/19 14:45:17;;;;;;;9.15;2.80;;;;;;;34.29;33.60;99660.88;5551368;32;34950;-69
2022/08/19 14:48:21;;;;;;;12.27;2.92;;;;;;;33.46;35.06;99664.59;5550491;32;34205;-69
2022/08/19 14:51:31;;;;;;;10.95;2.97;;;;;;;33.25;35.51;99668.50;5538371;32;32592;-68
2022/08/19 14:54:34;;;;;;;16.33;2.85;;;;;;;33.24;35.37;99672.38;5550056;32;32665;-69